Time;durP1;ratioP1;P1;durP2;ratioP2;P2;SDS_P1;SDS_P2;PMS_P1;PMS_P2;Temp;Humidity;BMP_temperature;BMP_pressure;BME280_temperature;BME280_humidity;BME280_pressure;Samples;Min_cycle;Max_cycle;Signal;HPM_P1;HPM_P2
2023/09/23 00:00:36;;;;;;;0.30;0.30;;;9.10;99.90;;;;;;5112253;27;20195;-72
2023/09/23 00:03:03;;;;;;;20.27;1.25;;;9.00;99.90;;;;;;5114163;27;20187;-73
2023/09/23 00:05:29;;;;;;;0.20;0.20;;;9.00;99.90;;;;;;5113186;27;20682;-73
2023/09/23 00:07:56;;;;;;;0.20;0.20;;;9.00;99.90;;;;;;5111118;27;20202;-74
2023/09/23 00:10:22;;;;;;;0.20;0.20;;;8.90;99.90;;;;;;5113058;27;20207;-73
2023/09/23 00:12:48;;;;;;;0.30;0.30;;;8.90;99.90;;;;;;5114067;27;20734;-73
2023/09/23 00:15:15;;;;;;;1.35;0.93;;;8.90;99.90;;;;;;5112843;27;20191;-74
2023/09/23 00:17:45;;;;;;;0.20;0.20;;;8.90;99.90;;;;;;5111203;27;20199;-73
2023/09/23 00:20:17;;;;;;;0.20;0.20;;;8.80;99.90;;;;;;5115544;27;20187;-72
2023/09/23 00:22:45;;;;;;;0.20;0.20;;;8.80;99.90;;;;;;5115023;27;20198;-74
2023/09/23 00:25:13;;;;;;;0.20;0.20;;;8.80;99.90;;;;;;5095403;27;20271;-73
2023/09/23 00:27:40;;;;;;;0.20;0.20;;;8.70;99.90;;;;;;5112176;27;20225;-74
2023/09/23 00:30:07;;;;;;;0.20;0.20;;;8.70;99.90;;;;;;5112167;28;20194;-73
2023/09/23 00:32:34;;;;;;;0.20;0.20;;;8.80;99.90;;;;;;5093024;28;20194;-74
2023/09/23 00:35:00;;;;;;;0.20;0.20;;;8.70;99.90;;;;;;5112099;28;20182;-73
2023/09/23 00:37:27;;;;;;;0.25;0.25;;;8.70;99.90;;;;;;5114232;28;20683;-73
2023/09/23 00:39:53;;;;;;;0.20;0.20;;;8.70;99.90;;;;;;5113082;28;20236;-74
2023/09/23 00:42:19;;;;;;;1.95;1.40;;;8.70;99.90;;;;;;5114559;28;20739;-73
2023/09/23 00:44:45;;;;;;;0.20;0.20;;;8.60;99.90;;;;;;5115104;27;20728;-74
2023/09/23 00:47:15;;;;;;;0.20;0.20;;;8.60;99.90;;;;;;5113982;27;20199;-73
2023/09/23 00:49:44;;;;;;;0.30;0.30;;;8.70;99.90;;;;;;5113085;27;20241;-74
2023/09/23 00:52:13;;;;;;;0.20;0.20;;;8.70;99.90;;;;;;5112366;27;20712;-73
2023/09/23 00:54:42;;;;;;;0.30;0.30;;;8.60;99.90;;;;;;5113086;27;20674;-74
2023/09/23 00:57:09;;;;;;;0.30;0.30;;;8.60;99.90;;;;;;5110565;28;20557;-73
2023/09/23 00:59:35;;;;;;;0.63;0.63;;;8.60;99.90;;;;;;5109683;27;20302;-74
2023/09/23 01:02:05;;;;;;;0.30;0.30;;;8.50;99.90;;;;;;5094231;27;20644;-73
2023/09/23 01:04:31;;;;;;;0.20;0.20;;;8.50;99.90;;;;;;5111990;27;20219;-73
2023/09/23 01:06:59;;;;;;;0.20;0.20;;;8.50;99.90;;;;;;5093942;28;20191;-73
2023/09/23 01:09:26;;;;;;;0.20;0.20;;;8.50;99.90;;;;;;5110923;27;20282;-73
2023/09/23 01:11:51;;;;;;;0.20;0.20;;;8.50;99.90;;;;;;5112709;27;20195;-73
2023/09/23 01:14:21;;;;;;;0.25;0.25;;;8.50;99.90;;;;;;5111488;27;20207;-73
2023/09/23 01:16:53;;;;;;;0.20;0.20;;;8.50;99.90;;;;;;5111863;27;20204;-73
2023/09/23 01:19:25;;;;;;;0.20;0.20;;;8.50;99.90;;;;;;5092496;28;20694;-74
2023/09/23 01:21:51;;;;;;;0.30;0.30;;;8.50;99.90;;;;;;5113498;27;20191;-74
2023/09/23 01:24:17;;;;;;;0.20;0.20;;;8.40;99.90;;;;;;5113570;27;20217;-74
2023/09/23 01:26:51;;;;;;;0.20;0.20;;;8.40;99.90;;;;;;5111071;27;20230;-74
2023/09/23 01:29:23;;;;;;;0.20;0.20;;;8.40;99.90;;;;;;5111519;27;20204;-72
2023/09/23 01:32:10;;;;;;;0.20;0.20;;;8.50;99.90;;;;;;5113128;27;20199;-74
2023/09/23 01:34:36;;;;;;;0.20;0.20;;;8.50;99.90;;;;;;5112795;27;20200;-74
2023/09/23 01:37:01;;;;;;;0.30;0.30;;;8.40;99.90;;;;;;5111898;27;20723;-71
2023/09/23 01:39:28;;;;;;;0.20;0.20;;;8.50;99.90;;;;;;5112868;27;20619;-71
2023/09/23 01:41:57;;;;;;;0.20;0.20;;;8.80;99.90;;;;;;5113122;27;20199;-72
2023/09/23 01:44:22;;;;;;;0.30;0.30;;;8.80;99.90;;;;;;5117631;27;20305;-72
2023/09/23 01:46:48;;;;;;;0.20;0.20;;;8.90;99.90;;;;;;5110838;27;20293;-72
2023/09/23 01:49:16;;;;;;;0.20;0.20;;;8.90;99.90;;;;;;5130835;27;20202;-72
2023/09/23 01:51:44;;;;;;;0.20;0.20;;;9.10;99.90;;;;;;5130995;27;20635;-71
2023/09/23 01:54:15;;;;;;;0.40;0.40;;;9.10;99.90;;;;;;5130534;27;20191;-73
2023/09/23 01:56:42;;;;;;;0.20;0.20;;;9.20;99.90;;;;;;5112230;27;20696;-71
2023/09/23 01:59:09;;;;;;;0.93;0.85;;;9.10;99.90;;;;;;5130726;27;20693;-72
2023/09/23 02:01:35;;;;;;;0.30;0.30;;;9.00;99.90;;;;;;5129718;27;20239;-71
2023/09/23 02:04:01;;;;;;;0.20;0.20;;;9.00;99.90;;;;;;5130732;27;20696;-72
2023/09/23 02:06:30;;;;;;;0.20;0.20;;;9.00;99.90;;;;;;5110857;27;20195;-72
2023/09/23 02:08:57;;;;;;;0.20;0.20;;;8.90;99.90;;;;;;5110681;27;20575;-72
2023/09/23 02:11:24;;;;;;;0.20;0.20;;;8.90;99.90;;;;;;5110987;27;20213;-71
2023/09/23 02:13:50;;;;;;;0.20;0.20;;;8.90;99.90;;;;;;5129990;27;20198;-72
2023/09/23 02:16:18;;;;;;;0.20;0.20;;;8.80;99.90;;;;;;5130122;27;20195;-72
2023/09/23 02:18:45;;;;;;;0.30;0.30;;;8.80;99.90;;;;;;5130002;27;20716;-72
2023/09/23 02:21:12;;;;;;;0.30;0.30;;;8.80;99.90;;;;;;5130203;27;20195;-72
2023/09/23 02:23:38;;;;;;;0.60;0.60;;;8.70;99.90;;;;;;5129888;27;20201;-72
2023/09/23 02:26:04;;;;;;;0.20;0.20;;;8.70;99.90;;;;;;5130230;27;20270;-72
2023/09/23 02:28:29;;;;;;;0.20;0.20;;;8.70;99.90;;;;;;5130376;27;20244;-71
2023/09/23 02:30:55;;;;;;;0.20;0.20;;;8.70;99.90;;;;;;5130347;27;20195;-72
2023/09/23 02:33:21;;;;;;;0.30;0.30;;;8.70;99.90;;;;;;5129586;27;20226;-72
2023/09/23 02:35:47;;;;;;;0.30;0.30;;;8.80;99.90;;;;;;5130259;27;20689;-72
2023/09/23 02:38:13;;;;;;;0.28;0.28;;;8.80;99.90;;;;;;5129993;27;20283;-72
2023/09/23 02:40:42;;;;;;;0.20;0.20;;;8.90;99.90;;;;;;5129944;27;20638;-71
2023/09/23 02:43:08;;;;;;;0.20;0.20;;;8.90;99.90;;;;;;5129685;27;20194;-71
2023/09/23 02:45:34;;;;;;;0.30;0.30;;;8.80;99.90;;;;;;5129769;27;20608;-74
2023/09/23 02:47:59;;;;;;;0.20;0.20;;;8.90;99.90;;;;;;5129984;27;20206;-71
2023/09/23 02:50:26;;;;;;;0.40;0.40;;;8.80;99.90;;;;;;5127654;27;20194;-72
2023/09/23 02:52:51;;;;;;;0.20;0.20;;;8.90;99.90;;;;;;5128826;27;20212;-72
2023/09/23 02:55:19;;;;;;;0.20;0.20;;;8.90;99.90;;;;;;5129486;27;20277;-72
2023/09/23 02:57:49;;;;;;;0.20;0.20;;;8.90;99.90;;;;;;5128402;27;20673;-72
2023/09/23 03:00:16;;;;;;;0.20;0.20;;;8.90;99.90;;;;;;5110462;27;20203;-71
2023/09/23 03:02:45;;;;;;;0.30;0.30;;;8.80;99.90;;;;;;5126864;27;20221;-72
2023/09/23 03:05:17;;;;;;;0.20;0.20;;;8.80;99.90;;;;;;5128935;27;20187;-72
2023/09/23 03:07:48;;;;;;;0.88;0.82;;;8.80;99.90;;;;;;5126934;27;20195;-71
2023/09/23 03:10:18;;;;;;;0.20;0.20;;;8.70;99.90;;;;;;5127620;27;20224;-72
2023/09/23 03:12:51;;;;;;;0.20;0.20;;;8.60;99.90;;;;;;5128474;27;20207;-72
2023/09/23 03:15:20;;;;;;;0.20;0.20;;;8.60;99.90;;;;;;5128426;27;20191;-72
2023/09/23 03:17:50;;;;;;;0.30;0.30;;;8.60;99.90;;;;;;5126902;27;20198;-72
2023/09/23 03:20:21;;;;;;;0.28;0.28;;;8.60;99.90;;;;;;5128123;27;20198;-73
2023/09/23 03:22:49;;;;;;;0.20;0.20;;;8.60;99.90;;;;;;5128042;27;20185;-72
2023/09/23 03:25:20;;;;;;;0.30;0.30;;;8.60;99.90;;;;;;5126017;27;20198;-72
2023/09/23 03:27:50;;;;;;;0.28;0.28;;;8.70;99.90;;;;;;5126850;27;20616;-74
2023/09/23 03:30:17;;;;;;;0.30;0.30;;;8.70;99.90;;;;;;5110356;27;20199;-75
2023/09/23 03:32:44;;;;;;;0.20;0.20;;;8.70;99.90;;;;;;5109913;27;20205;-76
2023/09/23 03:35:17;;;;;;;0.28;0.28;;;8.80;99.90;;;;;;5127771;27;20186;-75
2023/09/23 03:37:46;;;;;;;0.30;0.30;;;8.80;99.90;;;;;;5126729;27;20201;-75
2023/09/23 03:40:15;;;;;;;0.20;0.20;;;8.90;99.90;;;;;;5126845;27;20603;-75
2023/09/23 03:42:41;;;;;;;0.20;0.20;;;8.90;99.90;;;;;;5109788;27;20268;-75
2023/09/23 03:45:10;;;;;;;0.30;0.30;;;9.00;99.90;;;;;;5127901;27;20761;-74
2023/09/23 03:47:38;;;;;;;0.30;0.30;;;9.10;99.90;;;;;;5126884;27;20218;-75
2023/09/23 03:50:05;;;;;;;0.20;0.20;;;9.10;99.90;;;;;;5128429;27;20187;-74
2023/09/23 03:52:32;;;;;;;0.20;0.20;;;9.20;99.90;;;;;;5128334;27;20200;-75
2023/09/23 03:54:58;;;;;;;0.30;0.30;;;9.30;99.90;;;;;;5108448;27;20281;-74
2023/09/23 03:57:24;;;;;;;0.20;0.20;;;9.40;99.90;;;;;;5128368;27;20651;-73
2023/09/23 03:59:49;;;;;;;0.30;0.30;;;9.50;99.90;;;;;;5128432;27;20233;-73
2023/09/23 04:02:15;;;;;;;0.20;0.20;;;9.50;99.90;;;;;;5128178;27;20247;-73
2023/09/23 04:04:41;;;;;;;0.20;0.20;;;9.60;99.90;;;;;;5128262;27;20576;-73
2023/09/23 04:07:10;;;;;;;0.20;0.20;;;9.70;99.90;;;;;;5109345;27;20195;-73
2023/09/23 04:09:36;;;;;;;0.30;0.30;;;9.80;99.90;;;;;;5127995;27;20209;-74
2023/09/23 04:12:01;;;;;;;0.20;0.20;;;9.90;99.90;;;;;;5127811;27;20206;-74
2023/09/23 04:14:27;;;;;;;0.20;0.20;;;10.00;99.90;;;;;;5127910;27;20210;-75
2023/09/23 04:16:53;;;;;;;0.20;0.20;;;10.10;99.90;;;;;;5109033;27;20207;-74
2023/09/23 04:19:19;;;;;;;0.20;0.20;;;10.10;99.90;;;;;;5107306;27;20202;-74
2023/09/23 04:21:45;;;;;;;0.20;0.20;;;10.10;99.90;;;;;;5128155;27;20191;-74
2023/09/23 04:24:10;;;;;;;0.20;0.20;;;10.10;99.90;;;;;;5127819;27;20195;-74
2023/09/23 04:26:36;;;;;;;0.25;0.25;;;10.10;99.90;;;;;;5127936;27;20589;-74
2023/09/23 04:29:01;;;;;;;0.20;0.20;;;10.10;99.90;;;;;;5128075;28;20199;-74
2023/09/23 04:31:28;;;;;;;0.30;0.30;;;10.10;99.90;;;;;;5127682;28;20199;-74
2023/09/23 04:33:53;;;;;;;0.20;0.20;;;10.10;99.90;;;;;;5128011;28;20194;-74
2023/09/23 04:36:21;;;;;;;0.20;0.20;;;10.10;99.90;;;;;;5127910;28;20672;-74
2023/09/23 04:38:47;;;;;;;0.40;0.40;;;10.20;99.90;;;;;;5127586;28;20210;-74
2023/09/23 04:41:13;;;;;;;0.20;0.20;;;10.20;99.90;;;;;;5128061;28;20274;-74
2023/09/23 04:43:39;;;;;;;0.20;0.20;;;10.20;99.90;;;;;;5106981;28;20218;-74
2023/09/23 04:46:06;;;;;;;0.70;0.50;;;10.20;99.90;;;;;;5127567;28;20222;-74
2023/09/23 04:48:32;;;;;;;0.20;0.20;;;10.20;99.90;;;;;;5127942;28;20657;-74
2023/09/23 04:50:57;;;;;;;0.20;0.20;;;10.30;99.90;;;;;;5126441;28;20220;-74
2023/09/23 04:53:23;;;;;;;0.20;0.20;;;10.30;99.90;;;;;;5108448;27;20910;-75
2023/09/23 04:55:49;;;;;;;0.20;0.20;;;10.30;99.90;;;;;;5127832;28;20194;-74
2023/09/23 04:58:15;;;;;;;0.20;0.20;;;10.30;99.90;;;;;;5127600;28;20230;-74
2023/09/23 05:00:40;;;;;;;0.35;0.35;;;10.40;99.90;;;;;;5127389;28;20285;-74
2023/09/23 05:03:08;;;;;;;0.55;0.47;;;10.40;99.90;;;;;;5127760;28;20301;-74
2023/09/23 05:05:34;;;;;;;0.20;0.20;;;10.40;99.90;;;;;;5127009;28;20285;-74
2023/09/23 05:08:06;;;;;;;0.20;0.20;;;10.40;99.90;;;;;;5127779;28;20612;-74
2023/09/23 05:10:32;;;;;;;0.20;0.20;;;10.50;99.90;;;;;;5127724;28;20199;-74
2023/09/23 05:12:58;;;;;;;0.20;0.20;;;10.50;99.90;;;;;;5127238;28;20638;-74
2023/09/23 05:15:24;;;;;;;0.20;0.20;;;10.50;99.90;;;;;;5127247;28;20243;-74
2023/09/23 05:17:52;;;;;;;0.20;0.20;;;10.60;99.90;;;;;;5107153;28;20202;-74
2023/09/23 05:20:25;;;;;;;0.20;0.20;;;10.60;99.90;;;;;;5107366;28;20191;-75
2023/09/23 05:22:51;;;;;;;0.20;0.20;;;10.70;99.90;;;;;;5108428;28;20574;-74
2023/09/23 05:25:17;;;;;;;0.30;0.30;;;10.70;99.90;;;;;;5127521;28;20665;-75
2023/09/23 05:27:43;;;;;;;0.22;0.22;;;10.70;99.90;;;;;;5127708;28;20266;-74
2023/09/23 05:30:10;;;;;;;0.20;0.20;;;10.80;99.90;;;;;;5129175;27;20290;-75
2023/09/23 05:32:39;;;;;;;0.20;0.20;;;10.80;99.90;;;;;;5131557;27;20568;-75
2023/09/23 05:35:11;;;;;;;0.47;0.43;;;10.80;99.90;;;;;;5111584;27;20685;-75
2023/09/23 05:37:37;;;;;;;0.20;0.20;;;10.90;99.90;;;;;;5131056;27;20269;-75
2023/09/23 05:40:12;;;;;;;0.20;0.20;;;11.00;99.90;;;;;;5131451;27;20214;-74
2023/09/23 05:42:38;;;;;;;0.28;0.28;;;11.10;99.90;;;;;;5110008;27;20289;-75
2023/09/23 05:45:04;;;;;;;2.28;1.38;;;11.10;99.90;;;;;;5131327;27;20563;-75
2023/09/23 05:47:30;;;;;;;0.20;0.20;;;11.10;99.90;;;;;;5130358;27;20223;-75
2023/09/23 05:49:56;;;;;;;0.20;0.20;;;11.20;99.90;;;;;;5131549;27;20614;-74
2023/09/23 05:52:22;;;;;;;0.20;0.20;;;11.30;99.90;;;;;;5135582;27;20195;-75
2023/09/23 05:54:48;;;;;;;0.20;0.20;;;11.30;99.90;;;;;;5134700;27;20197;-75
2023/09/23 05:57:13;;;;;;;0.20;0.20;;;11.40;99.90;;;;;;5110308;27;20286;-75
2023/09/23 05:59:39;;;;;;;0.28;0.28;;;11.40;99.90;;;;;;5130807;27;20305;-75
2023/09/23 06:02:08;;;;;;;0.40;0.40;;;11.50;99.90;;;;;;5130574;27;20213;-73
2023/09/23 06:04:35;;;;;;;0.20;0.20;;;11.50;99.90;;;;;;5130339;27;20191;-72
2023/09/23 06:07:00;;;;;;;0.90;0.52;;;11.60;99.90;;;;;;5130455;27;20225;-72
2023/09/23 06:09:26;;;;;;;0.20;0.20;;;11.60;99.90;;;;;;5130891;27;20619;-72
2023/09/23 06:11:52;;;;;;;0.20;0.20;;;11.70;99.90;;;;;;5130655;27;20252;-72
2023/09/23 06:14:18;;;;;;;0.32;0.32;;;11.70;99.90;;;;;;5130316;27;20187;-72
2023/09/23 06:16:44;;;;;;;0.28;0.28;;;11.80;99.90;;;;;;5130141;27;20685;-73
2023/09/23 06:19:09;;;;;;;0.22;0.22;;;11.90;99.90;;;;;;5130325;27;20213;-73
2023/09/23 06:21:35;;;;;;;0.35;0.28;;;11.90;99.90;;;;;;5130978;27;20523;-72
2023/09/23 06:24:01;;;;;;;0.30;0.30;;;12.00;99.90;;;;;;5130406;27;20559;-72
2023/09/23 06:26:26;;;;;;;0.20;0.20;;;12.10;99.90;;;;;;5130348;27;20599;-72
2023/09/23 06:28:52;;;;;;;0.20;0.20;;;12.20;99.90;;;;;;5130266;27;20205;-73
2023/09/23 06:31:18;;;;;;;0.20;0.20;;;12.30;99.90;;;;;;5129000;27;20234;-73
2023/09/23 06:33:43;;;;;;;0.20;0.20;;;12.40;99.90;;;;;;5111072;27;20228;-73
2023/09/23 06:36:09;;;;;;;0.20;0.20;;;12.40;99.90;;;;;;5130171;27;20205;-74
2023/09/23 06:38:35;;;;;;;0.20;0.20;;;12.50;99.90;;;;;;5109624;27;20213;-73
2023/09/23 06:41:00;;;;;;;1.45;0.65;;;12.60;99.90;;;;;;5129524;27;20191;-72
2023/09/23 06:43:26;;;;;;;0.52;0.52;;;12.70;99.90;;;;;;5110509;27;20195;-74
2023/09/23 06:45:54;;;;;;;0.20;0.20;;;12.70;99.90;;;;;;5115954;27;20220;-75
2023/09/23 06:48:19;;;;;;;0.20;0.20;;;12.90;99.90;;;;;;5113819;27;20209;-74
2023/09/23 06:50:45;;;;;;;0.20;0.20;;;12.90;99.90;;;;;;5093680;27;20207;-74
2023/09/23 06:53:11;;;;;;;0.47;0.47;;;13.10;99.90;;;;;;5116179;27;20232;-74
2023/09/23 06:55:36;;;;;;;0.20;0.20;;;13.20;99.90;;;;;;5114833;27;20214;-74
2023/09/23 06:58:02;;;;;;;0.15;0.15;;;13.30;99.90;;;;;;5114157;27;20206;-74
2023/09/23 07:00:27;;;;;;;0.30;0.30;;;13.50;99.90;;;;;;5116154;27;20562;-74
2023/09/23 07:02:53;;;;;;;0.75;0.50;;;13.50;99.90;;;;;;5095766;27;20209;-74
2023/09/23 07:05:19;;;;;;;0.40;0.35;;;13.70;99.90;;;;;;5110662;27;20253;-73
2023/09/23 07:07:44;;;;;;;0.17;0.17;;;13.90;99.90;;;;;;5113219;27;20200;-75
2023/09/23 07:10:10;;;;;;;0.20;0.20;;;14.10;99.90;;;;;;5115920;27;20199;-76
2023/09/23 07:12:36;;;;;;;0.10;0.10;;;14.20;99.90;;;;;;5113271;27;20257;-76
2023/09/23 07:15:02;;;;;;;1.13;0.50;;;14.30;99.90;;;;;;5112920;27;20199;-77
2023/09/23 07:17:27;;;;;;;1.30;0.75;;;14.40;99.90;;;;;;5113188;27;20192;-74
2023/09/23 07:19:53;;;;;;;0.10;0.10;;;14.30;99.90;;;;;;5116245;27;20566;-77
2023/09/23 07:22:19;;;;;;;0.25;0.25;;;14.30;99.90;;;;;;5096929;27;20207;-75
2023/09/23 07:24:46;;;;;;;0.20;0.20;;;14.40;99.90;;;;;;5110391;27;20203;-80
2023/09/23 07:27:12;;;;;;;0.20;0.20;;;14.60;99.90;;;;;;5097090;27;20203;-76
2023/09/23 07:29:38;;;;;;;0.20;0.20;;;14.70;99.90;;;;;;5112696;27;20294;-75
2023/09/23 07:32:04;;;;;;;0.17;0.17;;;14.90;99.90;;;;;;5117925;27;20290;-76
2023/09/23 07:34:30;;;;;;;2.17;1.00;;;15.00;99.90;;;;;;5116002;27;20195;-75
2023/09/23 07:36:56;;;;;;;0.30;0.30;;;15.20;99.90;;;;;;5115371;27;20191;-75
2023/09/23 07:39:22;;;;;;;0.28;0.28;;;15.30;99.90;;;;;;5113381;27;20698;-76
2023/09/23 07:41:47;;;;;;;0.20;0.20;;;15.50;99.90;;;;;;5112250;27;20195;-75
2023/09/23 07:44:13;;;;;;;0.20;0.20;;;15.60;99.90;;;;;;5115739;27;20227;-75
2023/09/23 07:46:39;;;;;;;0.15;0.15;;;15.80;99.90;;;;;;5127695;27;20236;-77
2023/09/23 07:49:05;;;;;;;0.30;0.30;;;15.80;99.90;;;;;;5127155;27;20331;-80
2023/09/23 07:51:30;;;;;;;0.10;0.10;;;15.60;99.90;;;;;;5128280;27;20206;-74
2023/09/23 07:53:56;;;;;;;0.10;0.10;;;15.40;99.90;;;;;;5128754;27;20202;-76
2023/09/23 07:56:22;;;;;;;0.20;0.20;;;15.30;99.90;;;;;;5128643;27;20198;-75
2023/09/23 07:58:48;;;;;;;0.20;0.20;;;15.50;99.90;;;;;;5128638;27;20247;-75
2023/09/23 08:01:13;;;;;;;0.20;0.20;;;15.90;99.90;;;;;;5110286;27;20214;-76
2023/09/23 08:03:39;;;;;;;0.55;0.38;;;16.10;99.90;;;;;;5110141;27;20203;-75
2023/09/23 08:06:05;;;;;;;0.20;0.20;;;16.30;99.90;;;;;;5128163;27;20217;-75
2023/09/23 08:08:30;;;;;;;0.65;0.52;;;16.60;99.90;;;;;;5127998;27;20666;-74
2023/09/23 08:10:56;;;;;;;0.20;0.20;;;16.70;99.90;;;;;;5126487;27;20199;-75
2023/09/23 08:13:22;;;;;;;0.10;0.10;;;16.80;99.90;;;;;;5126750;27;20289;-76
2023/09/23 08:15:47;;;;;;;0.10;0.10;;;16.80;99.90;;;;;;5126259;27;20195;-76
2023/09/23 08:18:13;;;;;;;0.20;0.20;;;17.00;99.90;;;;;;5126955;27;20199;-75
2023/09/23 08:20:39;;;;;;;0.15;0.15;;;17.30;99.90;;;;;;5126782;27;20843;-76
2023/09/23 08:23:05;;;;;;;0.25;0.25;;;17.40;99.90;;;;;;5126266;27;20270;-76
2023/09/23 08:25:31;;;;;;;0.30;0.30;;;17.50;99.90;;;;;;5126780;27;20292;-77
2023/09/23 08:27:57;;;;;;;0.45;0.40;;;17.70;99.90;;;;;;5126779;27;20657;-76
2023/09/23 08:30:23;;;;;;;0.13;0.13;;;17.80;99.90;;;;;;5127427;27;20199;-77
2023/09/23 08:32:49;;;;;;;0.30;0.30;;;17.90;99.90;;;;;;5110270;28;20534;-76
2023/09/23 08:35:15;;;;;;;0.10;0.10;;;18.10;99.90;;;;;;5126774;27;20674;-75
2023/09/23 08:37:40;;;;;;;0.20;0.20;;;18.70;99.90;;;;;;5126912;27;20194;-75
2023/09/23 08:40:10;;;;;;;0.28;0.20;;;19.20;99.90;;;;;;5108869;28;20199;-78
2023/09/23 08:42:38;;;;;;;0.88;0.30;;;19.40;99.90;;;;;;5126330;28;20241;-77
2023/09/23 08:45:06;;;;;;;8.10;0.93;;;19.70;99.90;;;;;;5127772;28;20732;-78
2023/09/23 08:47:34;;;;;;;0.20;0.20;;;20.10;99.90;;;;;;5128029;28;20274;-76
2023/09/23 08:50:00;;;;;;;0.17;0.17;;;20.30;99.90;;;;;;5128024;28;20259;-78
2023/09/23 08:52:26;;;;;;;0.10;0.10;;;20.20;99.90;;;;;;5128513;28;20210;-77
2023/09/23 08:54:54;;;;;;;0.28;0.28;;;20.40;99.90;;;;;;5126938;28;20215;-77
2023/09/23 08:57:20;;;;;;;0.38;0.38;;;19.80;99.90;;;;;;5108818;27;20263;-77
2023/09/23 08:59:45;;;;;;;0.80;0.70;;;20.00;99.90;;;;;;5127794;28;20685;-76
2023/09/23 09:02:20;;;;;;;0.20;0.20;;;20.10;99.90;;;;;;5107043;28;20202;-77
2023/09/23 09:04:45;;;;;;;0.47;0.47;;;20.10;99.90;;;;;;5128381;27;20603;-76
2023/09/23 09:07:11;;;;;;;0.10;0.10;;;20.20;99.90;;;;;;5132217;27;20194;-77
2023/09/23 09:09:37;;;;;;;0.43;0.20;;;20.20;99.90;;;;;;5112004;27;20595;-77
2023/09/23 09:12:05;;;;;;;2.53;0.52;;;20.40;99.90;;;;;;5112209;27;20574;-77
2023/09/23 09:14:33;;;;;;;0.25;0.25;;;20.90;99.90;;;;;;5131585;27;20739;-77
2023/09/23 09:16:59;;;;;;;0.50;0.50;;;20.80;99.90;;;;;;5131395;27;20194;-75
2023/09/23 09:19:26;;;;;;;0.00;0.00;;;20.50;99.90;;;;;;5131288;27;20749;-77
2023/09/23 09:21:51;;;;;;;0.10;0.10;;;20.50;99.90;;;;;;5111467;27;20618;-78
2023/09/23 09:24:17;;;;;;;1.05;0.52;;;20.60;99.90;;;;;;5112686;27;20203;-76
2023/09/23 09:26:44;;;;;;;0.55;0.55;;;21.20;99.90;;;;;;5131843;27;20239;-76
2023/09/23 09:29:10;;;;;;;0.20;0.20;;;21.50;99.90;;;;;;5112589;27;20695;-76
2023/09/23 09:31:38;;;;;;;11.40;0.63;;;21.30;99.90;;;;;;5130879;27;20847;-76
2023/09/23 09:34:12;;;;;;;0.10;0.10;;;21.20;99.90;;;;;;5131327;27;20669;-76
2023/09/23 09:36:39;;;;;;;0.17;0.17;;;21.50;99.90;;;;;;5130940;27;20198;-76
2023/09/23 09:39:07;;;;;;;0.55;0.10;;;22.00;99.90;;;;;;5131055;27;20210;-75
2023/09/23 09:41:50;;;;;;;0.20;0.20;;;22.20;99.90;;;;;;5130711;27;20194;-76
2023/09/23 09:44:16;;;;;;;0.50;0.40;;;22.40;99.90;;;;;;5111671;27;20223;-76
2023/09/23 09:46:45;;;;;;;1.65;0.43;;;22.40;99.90;;;;;;5130708;27;20607;-76
2023/09/23 09:49:11;;;;;;;1.75;0.80;;;22.30;99.90;;;;;;5112419;27;20199;-76
2023/09/23 09:51:40;;;;;;;3.17;0.82;;;22.50;99.90;;;;;;5130543;27;20791;-76
2023/09/23 09:54:09;;;;;;;2.63;0.65;;;22.70;99.90;;;;;;5130816;27;20281;-77
2023/09/23 09:57:28;;;;;;;0.20;0.20;;;22.70;99.90;;;;;;5130414;27;20202;-79
2023/09/23 09:59:59;;;;;;;0.30;0.30;;;22.50;99.90;;;;;;5130811;27;20214;-78
2023/09/23 10:02:24;;;;;;;0.10;0.10;;;22.40;99.90;;;;;;5130291;27;20191;-77
2023/09/23 10:04:51;;;;;;;0.45;0.22;;;22.20;99.90;;;;;;5131150;27;20203;-78
2023/09/23 10:07:17;;;;;;;0.40;0.35;;;22.20;99.90;;;;;;5131227;27;20190;-80
2023/09/23 10:10:32;;;;;;;0.10;0.10;;;22.30;99.90;;;;;;5131668;27;20229;-79
2023/09/23 10:13:18;;;;;;;0.20;0.20;;;22.00;99.90;;;;;;5130513;27;20199;-79
2023/09/23 10:15:44;;;;;;;0.65;0.30;;;22.20;99.90;;;;;;5130217;27;20194;-80
2023/09/23 10:18:37;;;;;;;0.52;0.38;;;22.80;99.90;;;;;;5130641;27;20265;-78
2023/09/23 10:21:04;;;;;;;0.30;0.30;;;23.00;99.90;;;;;;5111655;27;20263;-77
2023/09/23 10:23:36;;;;;;;0.22;0.22;;;23.40;99.90;;;;;;5130051;27;20800;-78
2023/09/23 10:26:18;;;;;;;0.10;0.10;;;23.30;99.90;;;;;;5130210;27;20190;-77
2023/09/23 10:29:01;;;;;;;7.53;0.75;;;22.50;99.90;;;;;;5130681;27;20210;-75
2023/09/23 10:31:28;;;;;;;0.55;0.35;;;21.70;99.90;;;;;;5130007;27;20190;-76
2023/09/23 10:33:55;;;;;;;0.10;0.10;;;21.30;99.90;;;;;;5111447;27;20206;-74
2023/09/23 10:36:21;;;;;;;0.13;0.13;;;21.00;99.90;;;;;;5129581;27;20206;-78
2023/09/23 10:38:47;;;;;;;0.00;0.00;;;20.80;99.90;;;;;;5129426;27;20238;-75
2023/09/23 10:41:13;;;;;;;0.00;0.00;;;20.50;99.90;;;;;;5129776;27;20191;-75
2023/09/23 10:43:42;;;;;;;0.20;0.20;;;20.40;99.90;;;;;;5129572;27;20688;-75
2023/09/23 10:46:07;;;;;;;0.00;0.00;;;20.80;99.90;;;;;;5129531;27;20674;-76
2023/09/23 10:48:34;;;;;;;0.10;0.10;;;21.50;99.90;;;;;;5129763;27;20199;-75
2023/09/23 10:51:01;;;;;;;0.10;0.10;;;22.00;99.90;;;;;;5129871;27;20194;-75
2023/09/23 10:53:30;;;;;;;0.10;0.10;;;22.00;99.90;;;;;;5129485;27;20583;-76
2023/09/23 10:56:01;;;;;;;0.00;0.00;;;22.30;99.90;;;;;;5129477;27;20282;-76
2023/09/23 10:58:31;;;;;;;0.00;0.00;;;22.50;99.90;;;;;;5129445;27;20708;-76
2023/09/23 11:00:57;;;;;;;0.00;0.00;;;23.20;99.90;;;;;;5129217;27;20194;-74
2023/09/23 11:03:23;;;;;;;0.00;0.00;;;23.40;99.90;;;;;;5129525;27;20635;-74
2023/09/23 11:05:49;;;;;;;0.10;0.10;;;23.30;99.90;;;;;;5129532;27;20202;-73
2023/09/23 11:08:18;;;;;;;0.08;0.08;;;23.30;99.90;;;;;;5129245;27;20203;-75
2023/09/23 11:10:49;;;;;;;2.47;0.47;;;23.20;99.90;;;;;;5108930;27;20203;-76
2023/09/23 11:13:18;;;;;;;0.03;0.03;;;22.90;99.90;;;;;;5129487;27;20195;-79
2023/09/23 11:15:45;;;;;;;0.00;0.00;;;22.20;99.90;;;;;;5129197;27;20260;-75
2023/09/23 11:18:17;;;;;;;0.00;0.00;;;21.60;99.90;;;;;;5129321;27;20207;-77
2023/09/23 11:21:05;;;;;;;0.00;0.00;;;21.50;99.90;;;;;;5108219;27;20207;-80
2023/09/23 11:23:32;;;;;;;0.20;0.20;;;21.40;99.90;;;;;;5128116;27;20210;-78
2023/09/23 11:25:59;;;;;;;0.20;0.20;;;21.10;99.90;;;;;;5129107;27;20649;-77
2023/09/23 11:28:26;;;;;;;0.20;0.20;;;21.00;99.90;;;;;;5128263;27;20197;-77
2023/09/23 11:30:54;;;;;;;0.50;0.50;;;20.70;99.90;;;;;;5129348;27;20199;-79
2023/09/23 11:33:23;;;;;;;0.30;0.30;;;20.80;99.90;;;;;;5108946;27;20298;-83
2023/09/23 11:35:48;;;;;;;0.70;0.70;;;20.70;99.90;;;;;;5109982;27;20199;-79
2023/09/23 11:38:18;;;;;;;1.50;0.70;;;20.40;99.90;;;;;;5110045;27;20214;-81
2023/09/23 11:40:46;;;;;;;0.30;0.30;;;20.30;99.90;;;;;;5109249;27;20299;-79
2023/09/23 11:43:12;;;;;;;0.30;0.30;;;20.40;99.90;;;;;;5108536;27;20247;-79
2023/09/23 11:45:39;;;;;;;0.38;0.38;;;20.30;99.90;;;;;;5129172;27;20693;-78
2023/09/23 11:48:07;;;;;;;0.30;0.30;;;20.00;99.90;;;;;;5109467;27;20321;-78
2023/09/23 11:50:33;;;;;;;0.35;0.35;;;19.80;99.90;;;;;;5129165;27;20654;-75
2023/09/23 11:52:59;;;;;;;0.70;0.50;;;19.50;99.90;;;;;;5129239;27;20264;-79
2023/09/23 11:55:26;;;;;;;0.43;0.43;;;19.30;99.90;;;;;;5130141;27;20201;-78
2023/09/23 11:57:54;;;;;;;0.30;0.30;;;19.00;99.90;;;;;;5108459;27;20199;-77
2023/09/23 12:00:20;;;;;;;0.30;0.30;;;18.80;99.90;;;;;;5109298;27;20621;-79
2023/09/23 12:02:48;;;;;;;0.30;0.30;;;18.80;99.90;;;;;;5129366;27;20193;-77
2023/09/23 12:05:16;;;;;;;0.30;0.30;;;18.80;99.90;;;;;;5108608;28;20259;-79
2023/09/23 12:07:42;;;;;;;0.73;0.60;;;18.80;99.90;;;;;;5128635;27;20202;-76
2023/09/23 12:10:09;;;;;;;0.32;0.32;;;18.60;99.90;;;;;;5128437;27;20249;-76
2023/09/23 12:12:39;;;;;;;0.50;0.50;;;18.70;99.90;;;;;;5107673;27;20206;-74
2023/09/23 12:15:08;;;;;;;1.00;0.88;;;18.70;99.90;;;;;;5107917;27;20199;-74
2023/09/23 12:17:35;;;;;;;0.60;0.60;;;18.80;99.90;;;;;;5128164;27;20198;-75
2023/09/23 12:20:00;;;;;;;0.52;0.52;;;19.00;99.90;;;;;;5127721;27;20750;-74
2023/09/23 12:22:26;;;;;;;0.40;0.40;;;19.10;99.90;;;;;;5128510;27;20191;-74
2023/09/23 12:24:52;;;;;;;0.30;0.30;;;19.20;99.90;;;;;;5128100;27;20202;-74
2023/09/23 12:27:21;;;;;;;1.05;0.43;;;19.10;99.90;;;;;;5109550;27;20638;-72
2023/09/23 12:29:47;;;;;;;0.30;0.30;;;19.10;99.90;;;;;;5128943;27;20305;-77
2023/09/23 12:32:13;;;;;;;0.20;0.20;;;19.20;99.90;;;;;;5129537;27;20290;-78
2023/09/23 12:34:39;;;;;;;0.20;0.20;;;19.30;99.90;;;;;;5129059;28;20588;-76
2023/09/23 12:37:04;;;;;;;0.30;0.30;;;19.40;99.90;;;;;;5128211;28;20190;-75
2023/09/23 12:39:30;;;;;;;0.30;0.30;;;19.40;99.90;;;;;;5128109;27;20766;-75
2023/09/23 12:41:56;;;;;;;1.35;0.75;;;19.10;99.90;;;;;;5132590;27;20195;-75
2023/09/23 12:44:23;;;;;;;0.30;0.30;;;18.80;99.90;;;;;;5128875;27;20291;-74
2023/09/23 12:46:48;;;;;;;0.30;0.30;;;18.70;99.90;;;;;;5100149;27;20199;-74
2023/09/23 12:49:14;;;;;;;0.30;0.30;;;18.60;99.90;;;;;;5100053;27;20700;-75
2023/09/23 12:51:41;;;;;;;0.20;0.20;;;18.70;99.90;;;;;;5097901;27;21569;-75